createdAt,value
2017-11-14T00:00:20.648Z,9.00
2017-11-14T00:00:56.819Z,8.95
2017-11-14T00:01:32.458Z,8.38
2017-11-14T00:02:08.775Z,8.30
2017-11-14T00:02:45.020Z,8.23
2017-11-14T00:03:21.046Z,9.20
2017-11-14T00:03:56.911Z,8.05
2017-11-14T00:04:33.202Z,8.57
2017-11-14T00:05:09.192Z,7.00
2017-11-14T00:05:44.266Z,8.73
2017-11-14T00:06:18.163Z,9.63
2017-11-14T00:06:52.095Z,8.98
2017-11-14T00:07:25.967Z,8.23
2017-11-14T00:07:59.845Z,7.95
2017-11-14T00:08:35.887Z,8.25
2017-11-14T00:09:11.572Z,8.45
2017-11-14T00:09:48.663Z,8.45
2017-11-14T00:10:24.256Z,7.28
2017-11-14T00:10:59.494Z,8.85
2017-11-14T00:11:35.446Z,7.80
2017-11-14T00:12:12.375Z,8.20
2017-11-14T00:12:48.301Z,7.93
2017-11-14T00:13:27.602Z,7.72
2017-11-14T00:14:03.894Z,7.35
2017-11-14T00:14:39.413Z,8.63
2017-11-14T00:15:15.050Z,8.07
2017-11-14T00:15:52.923Z,8.00
2017-11-14T00:16:28.835Z,7.68
2017-11-14T00:17:03.493Z,8.50
2017-11-14T00:17:38.421Z,8.43
2017-11-14T00:18:14.234Z,7.93
2017-11-14T00:18:49.807Z,8.25
2017-11-14T00:19:24.424Z,8.35
2017-11-14T00:19:59.579Z,8.52
2017-11-14T00:20:35.912Z,8.23
2017-11-14T00:21:10.416Z,8.82
2017-11-14T00:21:44.938Z,8.57
2017-11-14T00:22:19.716Z,8.07
2017-11-14T00:22:55.884Z,10.90
2017-11-14T00:23:31.052Z,8.15
2017-11-14T00:24:05.965Z,9.32
2017-11-14T00:24:42.095Z,9.77
2017-11-14T00:25:16.204Z,9.18
2017-11-14T00:25:51.598Z,9.52
2017-11-14T00:27:15.588Z,8.63
2017-11-14T00:27:50.645Z,9.15
2017-11-14T00:28:24.534Z,8.82
2017-11-14T00:28:58.531Z,9.60
2017-11-14T00:29:32.407Z,9.40
2017-11-14T00:30:06.422Z,10.27
2017-11-14T00:30:40.314Z,9.38
2017-11-14T00:31:14.186Z,10.13
2017-11-14T00:31:49.331Z,9.15
2017-11-14T00:32:25.916Z,9.40
2017-11-14T00:33:01.791Z,9.40
2017-11-14T00:33:37.950Z,10.30
2017-11-14T00:34:13.829Z,10.55
2017-11-14T00:34:50.047Z,9.98
2017-11-14T00:35:26.005Z,10.40
2017-11-14T00:36:01.907Z,9.50
2017-11-14T00:36:38.101Z,10.55
2017-11-14T00:37:14.042Z,10.50
2017-11-14T00:37:52.017Z,10.75
2017-11-14T00:38:27.735Z,10.73
2017-11-14T00:39:03.140Z,10.90
2017-11-14T00:39:38.798Z,10.77
2017-11-14T00:40:14.144Z,9.73
2017-11-14T00:40:52.688Z,10.70
2017-11-14T00:41:28.723Z,10.40
2017-11-14T00:42:05.083Z,9.70
2017-11-14T00:42:41.237Z,11.05
2017-11-14T00:43:18.499Z,11.38
2017-11-14T00:43:54.436Z,11.10
2017-11-14T00:44:30.261Z,11.10
2017-11-14T00:45:05.989Z,11.75
2017-11-14T00:45:42.555Z,10.98
2017-11-14T00:46:18.277Z,10.23
2017-11-14T00:46:52.628Z,12.15
2017-11-14T00:47:27.574Z,12.15
2017-11-14T00:48:03.189Z,11.50
2017-11-14T00:48:38.201Z,11.82
2017-11-14T00:49:12.511Z,11.70
2017-11-14T00:49:47.523Z,11.40
2017-11-14T00:50:22.222Z,11.60
2017-11-14T00:50:56.317Z,11.35
2017-11-14T00:51:31.057Z,12.02
2017-11-14T00:52:05.177Z,11.80
2017-11-14T00:52:39.339Z,13.30
2017-11-14T00:53:13.205Z,12.13
2017-11-14T00:53:47.097Z,11.12
2017-11-14T00:54:20.996Z,12.35
2017-11-14T00:54:54.879Z,13.20
2017-11-14T00:55:28.751Z,11.52
2017-11-14T00:56:04.271Z,12.40
2017-11-14T00:56:39.949Z,11.90
2017-11-14T00:57:15.873Z,11.65
2017-11-14T00:57:52.404Z,12.32
2017-11-14T00:58:28.072Z,12.52
2017-11-14T00:59:04.298Z,12.35
2017-11-14T00:59:38.264Z,12.07
2017-11-14T01:00:12.557Z,11.60
2017-11-14T01:00:47.707Z,11.43
2017-11-14T01:01:21.837Z,12.88
2017-11-14T01:01:56.702Z,11.50
2017-11-14T01:02:31.217Z,12.52
2017-11-14T01:03:05.363Z,11.85
2017-11-14T01:03:40.651Z,13.13
2017-11-14T01:04:15.399Z,12.68
2017-11-14T01:04:49.329Z,11.93
2017-11-14T01:05:23.463Z,13.00
2017-11-14T01:05:57.491Z,11.57
2017-11-14T01:06:32.500Z,12.30
2017-11-14T01:07:06.485Z,11.48
2017-11-14T01:07:41.795Z,12.82
2017-11-14T01:08:16.835Z,13.10
2017-11-14T01:08:52.808Z,13.02
2017-11-14T01:09:28.126Z,13.68
2017-11-14T01:10:02.002Z,12.70
2017-11-14T01:10:37.315Z,12.40
2017-11-14T01:11:11.886Z,12.40
2017-11-14T01:11:46.718Z,12.52
2017-11-14T01:12:21.202Z,13.20
2017-11-14T01:12:56.180Z,12.57
2017-11-14T01:13:30.166Z,12.32
2017-11-14T01:14:04.669Z,12.52
2017-11-14T01:14:39.736Z,13.60
2017-11-14T01:15:15.395Z,12.88
2017-11-14T01:15:52.881Z,13.68
2017-11-14T01:16:29.471Z,12.90
2017-11-14T01:17:04.598Z,15.52
2017-11-14T01:17:40.542Z,13.80
2017-11-14T01:18:14.865Z,14.52
2017-11-14T01:18:48.779Z,13.50
2017-11-14T01:19:22.743Z,13.25
2017-11-14T01:19:58.946Z,13.80
2017-11-14T01:20:34.771Z,12.63
2017-11-14T01:21:10.455Z,12.98
2017-11-14T01:21:46.171Z,14.27
2017-11-14T01:22:21.427Z,13.70
2017-11-14T01:22:57.150Z,13.68
2017-11-14T01:23:34.271Z,13.07
2017-11-14T01:24:10.081Z,13.40
2017-11-14T01:24:46.367Z,13.43
2017-11-14T01:25:21.930Z,12.75
2017-11-14T01:25:57.969Z,13.02
2017-11-14T01:26:33.336Z,12.60
2017-11-14T01:27:09.084Z,13.75
2017-11-14T01:27:45.486Z,13.98
2017-11-14T01:28:22.163Z,14.25
2017-11-14T01:28:58.607Z,12.65
2017-11-14T01:29:34.340Z,14.38
2017-11-14T01:30:10.962Z,12.63
2017-11-14T01:30:47.211Z,13.05
2017-11-14T01:31:23.957Z,13.07
2017-11-14T01:32:03.610Z,12.85
2017-11-14T01:32:39.542Z,12.18
2017-11-14T01:33:15.137Z,11.82
2017-11-14T01:33:50.511Z,13.45
2017-11-14T01:34:27.072Z,13.20
2017-11-14T01:35:02.415Z,13.65
2017-11-14T01:35:38.067Z,12.37
2017-11-14T01:36:13.671Z,13.45
2017-11-14T01:36:47.690Z,13.93
2017-11-14T01:37:22.599Z,12.75
2017-11-14T01:37:58.458Z,13.50
2017-11-14T01:38:33.346Z,13.27
2017-11-14T01:39:09.557Z,12.70
2017-11-14T01:39:46.196Z,12.93
2017-11-14T01:40:20.266Z,12.98
2017-11-14T01:40:54.139Z,13.60
2017-11-14T01:41:28.397Z,13.68
2017-11-14T01:42:02.296Z,13.75
2017-11-14T01:42:36.218Z,13.18
2017-11-14T01:43:10.086Z,13.13
2017-11-14T01:43:44.038Z,12.68
2017-11-14T01:44:18.040Z,13.13
2017-11-14T01:44:52.065Z,13.45
2017-11-14T01:45:25.955Z,13.38
2017-11-14T01:45:59.816Z,13.65
2017-11-14T01:46:33.731Z,12.85
2017-11-14T01:47:07.722Z,14.27
2017-11-14T01:47:41.611Z,13.98
2017-11-14T01:48:15.744Z,12.80
2017-11-14T01:48:49.642Z,12.52
2017-11-14T01:49:23.633Z,14.68
2017-11-14T01:49:57.536Z,14.65
2017-11-14T01:50:31.614Z,13.68
2017-11-14T01:51:05.480Z,13.18
2017-11-14T01:51:39.406Z,13.68
2017-11-14T01:52:13.519Z,13.82
2017-11-14T01:52:47.391Z,14.27
2017-11-14T01:53:21.264Z,13.90
2017-11-14T01:53:55.154Z,14.48
2017-11-14T01:54:29.084Z,13.30
2017-11-14T01:55:02.966Z,12.82
2017-11-14T01:55:37.485Z,13.93
2017-11-14T01:56:11.355Z,12.70
2017-11-14T01:56:45.237Z,14.05
2017-11-14T01:57:19.319Z,12.30
2017-11-14T01:57:53.376Z,13.73
2017-11-14T01:58:27.253Z,13.48
2017-11-14T01:59:01.190Z,13.73
2017-11-14T01:59:35.077Z,13.00
2017-11-14T02:00:08.948Z,13.82
2017-11-14T02:00:47.667Z,13.32
2017-11-14T02:01:21.662Z,14.13
2017-11-14T02:01:55.551Z,13.00
2017-11-14T02:02:29.428Z,14.07
2017-11-14T02:03:03.327Z,13.15
2017-11-14T02:03:37.202Z,14.10
2017-11-14T02:04:11.252Z,13.45
2017-11-14T02:04:45.128Z,12.73
2017-11-14T02:05:19.014Z,13.95
2017-11-14T02:05:52.902Z,13.00
2017-11-14T02:06:26.775Z,12.77
2017-11-14T02:07:00.717Z,13.60
2017-11-14T02:07:34.601Z,13.15
2017-11-14T02:08:08.480Z,13.60
2017-11-14T02:08:42.356Z,13.45
2017-11-14T02:09:16.234Z,15.43
2017-11-14T02:09:50.119Z,13.90
2017-11-14T02:10:23.990Z,12.90
2017-11-14T02:10:57.853Z,13.13
2017-11-14T02:11:31.878Z,14.68
2017-11-14T02:12:05.785Z,13.95
2017-11-14T02:12:39.703Z,14.50
2017-11-14T02:13:13.776Z,14.02
2017-11-14T02:13:47.660Z,12.70
2017-11-14T02:14:21.564Z,13.00
2017-11-14T02:14:55.463Z,14.75
2017-11-14T02:15:29.356Z,14.55
2017-11-14T02:16:03.242Z,13.75
2017-11-14T02:16:37.239Z,13.30
2017-11-14T02:17:11.131Z,14.30
2017-11-14T02:17:45.720Z,15.88
2017-11-14T02:18:19.601Z,12.82
2017-11-14T02:18:53.581Z,13.40
2017-11-14T02:19:27.465Z,14.40
2017-11-14T02:20:01.673Z,13.52
2017-11-14T02:20:35.547Z,13.25
2017-11-14T02:21:09.448Z,13.27
2017-11-14T02:21:43.315Z,12.65
2017-11-14T02:22:17.336Z,12.40
2017-11-14T02:22:51.205Z,13.45
2017-11-14T02:23:25.322Z,13.38
2017-11-14T02:23:59.201Z,12.50
2017-11-14T02:24:33.094Z,13.98
2017-11-14T02:25:07.200Z,14.48
2017-11-14T02:25:41.073Z,13.80
2017-11-14T02:26:14.962Z,14.27
2017-11-14T02:26:54.530Z,13.65
2017-11-14T02:27:28.406Z,12.85
2017-11-14T02:28:02.289Z,12.45
2017-11-14T02:28:36.199Z,13.57
2017-11-14T02:29:10.308Z,15.35
2017-11-14T02:29:44.185Z,13.18
2017-11-14T02:30:18.051Z,12.93
2017-11-14T02:30:52.210Z,14.55
2017-11-14T02:31:26.099Z,13.82
2017-11-14T02:31:59.969Z,13.85
2017-11-14T02:32:33.864Z,13.80
2017-11-14T02:33:07.740Z,14.38
2017-11-14T02:33:41.610Z,14.30
2017-11-14T02:34:15.498Z,14.48
2017-11-14T02:34:49.383Z,14.05
2017-11-14T02:35:23.276Z,13.77
2017-11-14T02:35:57.164Z,15.05
2017-11-14T02:36:31.064Z,14.30
2017-11-14T02:37:04.936Z,14.02
2017-11-14T02:37:38.810Z,13.00
2017-11-14T02:38:12.685Z,13.07
2017-11-14T02:38:46.556Z,14.87
2017-11-14T02:39:20.449Z,12.82
2017-11-14T02:39:54.323Z,12.90
2017-11-14T02:40:28.202Z,15.10
2017-11-14T02:41:02.077Z,15.18
2017-11-14T02:41:36.110Z,13.02
2017-11-14T02:42:09.993Z,13.90
2017-11-14T02:42:43.874Z,14.02
2017-11-14T02:43:17.747Z,13.15
2017-11-14T02:43:51.715Z,14.73
2017-11-14T02:44:25.694Z,14.87
2017-11-14T02:44:59.565Z,14.20
2017-11-14T02:45:33.701Z,14.52
2017-11-14T02:46:07.596Z,14.07
2017-11-14T02:46:41.468Z,13.65
2017-11-14T02:47:15.340Z,15.02
2017-11-14T02:47:49.236Z,14.52
2017-11-14T02:48:23.119Z,15.30
2017-11-14T02:48:56.997Z,14.87
2017-11-14T02:49:30.972Z,14.27
2017-11-14T02:50:04.953Z,13.27
2017-11-14T02:50:38.835Z,13.65
2017-11-14T02:51:12.715Z,14.27
2017-11-14T02:51:46.656Z,13.55
2017-11-14T02:52:20.626Z,12.68
2017-11-14T02:52:54.541Z,14.87
2017-11-14T02:53:28.434Z,14.87
2017-11-14T02:54:02.314Z,13.27
2017-11-14T02:54:36.193Z,13.75
2017-11-14T02:55:10.055Z,14.40
2017-11-14T02:55:43.949Z,14.23
2017-11-14T02:56:17.827Z,14.55
2017-11-14T02:56:51.704Z,14.50
2017-11-14T02:57:25.568Z,14.00
2017-11-14T02:57:59.594Z,13.07
2017-11-14T02:58:33.575Z,14.52
2017-11-14T02:59:07.624Z,14.05
2017-11-14T02:59:41.492Z,13.77
2017-11-14T03:00:15.570Z,13.88
2017-11-14T03:00:49.442Z,15.80
2017-11-14T03:01:23.376Z,14.85
2017-11-14T03:01:57.254Z,14.30
2017-11-14T03:02:31.132Z,14.57
2017-11-14T03:03:05.027Z,13.55
2017-11-14T03:03:38.942Z,14.87
2017-11-14T03:04:12.943Z,14.45
2017-11-14T03:04:46.800Z,14.20
2017-11-14T03:05:20.934Z,15.27
2017-11-14T03:05:54.806Z,14.50
2017-11-14T03:06:28.691Z,14.48
2017-11-14T03:07:02.569Z,14.60
2017-11-14T03:07:36.453Z,14.95
2017-11-14T03:08:10.511Z,13.25
2017-11-14T03:08:44.389Z,13.77
2017-11-14T03:09:18.286Z,14.18
2017-11-14T03:09:52.996Z,13.52
2017-11-14T03:10:26.913Z,13.82
2017-11-14T03:11:00.782Z,14.10
2017-11-14T03:11:34.731Z,13.88
2017-11-14T03:12:08.918Z,14.23
2017-11-14T03:12:42.903Z,14.68
2017-11-14T03:13:16.796Z,14.27
2017-11-14T03:13:50.695Z,14.70
2017-11-14T03:14:24.746Z,14.35
2017-11-14T03:14:58.723Z,14.13
2017-11-14T03:15:32.827Z,14.23
2017-11-14T03:16:06.896Z,12.90
2017-11-14T03:16:40.776Z,12.95
2017-11-14T03:17:14.885Z,15.15
2017-11-14T03:17:48.760Z,12.90
2017-11-14T03:18:22.665Z,13.15
2017-11-14T03:18:56.520Z,11.88
2017-11-14T03:19:30.388Z,12.55
2017-11-14T03:20:04.268Z,13.25
2017-11-14T03:20:38.141Z,12.77
2017-11-14T03:21:12.219Z,13.32
2017-11-14T03:21:46.067Z,13.62
2017-11-14T03:22:19.933Z,11.93
2017-11-14T03:22:53.823Z,12.32
2017-11-14T03:23:27.957Z,12.82
2017-11-14T03:24:01.855Z,13.85
2017-11-14T03:24:35.724Z,11.70
2017-11-14T03:25:09.745Z,11.45
2017-11-14T03:25:43.643Z,12.32
2017-11-14T03:26:17.521Z,12.00
2017-11-14T03:26:51.429Z,11.65
2017-11-14T03:27:25.407Z,11.50
2017-11-14T03:27:59.265Z,11.60
2017-11-14T03:28:33.201Z,11.18
2017-11-14T03:29:07.073Z,12.05
2017-11-14T03:29:40.951Z,11.55
2017-11-14T03:30:15.012Z,11.00
2017-11-14T03:30:48.898Z,11.55
2017-11-14T03:31:22.785Z,12.50
2017-11-14T03:31:56.676Z,11.75
2017-11-14T03:32:30.546Z,11.05
2017-11-14T03:33:04.471Z,10.57
2017-11-14T03:33:38.495Z,11.57
2017-11-14T03:34:12.367Z,12.05
2017-11-14T03:34:46.259Z,10.65
2017-11-14T03:35:20.156Z,12.65
2017-11-14T03:35:54.040Z,11.23
2017-11-14T03:36:27.940Z,12.50
2017-11-14T03:37:01.810Z,11.00
2017-11-14T03:37:35.840Z,11.88
2017-11-14T03:38:09.743Z,11.48
2017-11-14T03:38:43.628Z,10.98
2017-11-14T03:39:17.526Z,12.32
2017-11-14T03:39:51.413Z,12.63
2017-11-14T03:40:25.299Z,12.95
2017-11-14T03:40:59.193Z,11.02
2017-11-14T03:41:33.066Z,12.70
2017-11-14T03:42:07.100Z,10.82
2017-11-14T03:42:41.231Z,11.57
2017-11-14T03:43:15.088Z,11.18
2017-11-14T03:43:48.958Z,12.65
2017-11-14T03:44:22.828Z,11.10
2017-11-14T03:44:56.795Z,13.23
2017-11-14T03:45:30.664Z,11.32
2017-11-14T03:46:04.575Z,12.57
2017-11-14T03:46:38.479Z,12.70
2017-11-14T03:47:12.474Z,11.45
2017-11-14T03:47:46.591Z,12.13
2017-11-14T03:48:20.463Z,12.75
2017-11-14T03:48:54.467Z,12.18
2017-11-14T03:49:28.458Z,11.65
2017-11-14T03:50:02.467Z,11.70
2017-11-14T03:50:36.334Z,13.30
2017-11-14T03:51:10.263Z,12.25
2017-11-14T03:51:44.122Z,12.43
2017-11-14T03:52:17.999Z,11.25
2017-11-14T03:52:52.244Z,11.43
2017-11-14T03:53:26.111Z,12.52
2017-11-14T03:54:00.012Z,13.35
2017-11-14T03:54:33.911Z,11.55
2017-11-14T03:55:07.779Z,13.10
2017-11-14T03:55:41.643Z,12.05
2017-11-14T03:56:15.811Z,11.75
2017-11-14T03:56:49.685Z,12.68
2017-11-14T03:57:23.632Z,12.30
2017-11-14T03:57:57.499Z,12.00
2017-11-14T03:58:31.373Z,11.98
2017-11-14T03:59:05.495Z,11.10
2017-11-14T03:59:39.399Z,12.75
2017-11-14T04:00:13.259Z,12.60
2017-11-14T04:00:47.297Z,13.23
2017-11-14T04:01:21.483Z,12.60
2017-11-14T04:01:55.350Z,13.20
2017-11-14T04:02:29.237Z,13.18
2017-11-14T04:03:03.132Z,13.15
2017-11-14T04:03:37.061Z,13.25
2017-11-14T04:04:10.936Z,12.40
2017-11-14T04:04:44.861Z,13.23
2017-11-14T04:05:18.737Z,12.70
2017-11-14T04:05:52.682Z,13.15
2017-11-14T04:06:26.559Z,12.68
2017-11-14T04:07:00.479Z,12.75
2017-11-14T04:07:34.354Z,12.77
2017-11-14T04:08:08.215Z,13.05
2017-11-14T04:08:42.065Z,13.38
2017-11-14T04:09:15.950Z,14.77
2017-11-14T04:09:50.046Z,12.02
2017-11-14T04:10:23.919Z,12.40
2017-11-14T04:10:57.789Z,11.75
2017-11-14T04:11:31.811Z,12.18
2017-11-14T04:12:05.677Z,11.65
2017-11-14T04:12:39.534Z,12.55
2017-11-14T04:13:13.508Z,13.45
2017-11-14T04:13:47.392Z,13.23
2017-11-14T04:14:21.301Z,13.27
2017-11-14T04:14:55.188Z,11.98
2017-11-14T04:15:29.066Z,13.55
2017-11-14T04:16:03.096Z,12.20
2017-11-14T04:16:37.070Z,13.73
2017-11-14T04:17:10.968Z,13.48
2017-11-14T04:17:44.853Z,15.18
2017-11-14T04:18:18.856Z,13.48
2017-11-14T04:18:52.723Z,15.10
2017-11-14T04:19:26.617Z,13.70
2017-11-14T04:20:00.503Z,14.65
2017-11-14T04:20:34.434Z,13.07
2017-11-14T04:21:08.356Z,13.73
2017-11-14T04:21:42.235Z,13.70
2017-11-14T04:22:16.107Z,15.10
2017-11-14T04:22:49.970Z,16.50
2017-11-14T04:23:24.135Z,15.05
2017-11-14T04:23:58.113Z,16.00
2017-11-14T04:24:32.127Z,14.98
2017-11-14T04:25:06.020Z,16.27
2017-11-14T04:25:39.898Z,17.20
2017-11-14T04:26:14.020Z,16.45
2017-11-14T04:26:47.905Z,17.05
2017-11-14T04:27:21.759Z,15.63
2017-11-14T04:27:55.627Z,14.23
2017-11-14T04:28:29.522Z,13.82
2017-11-14T04:29:03.386Z,13.02
2017-11-14T04:29:37.279Z,13.25
2017-11-14T04:30:11.166Z,13.35
2017-11-14T04:30:45.091Z,12.68
2017-11-14T04:31:18.971Z,13.85
2017-11-14T04:31:52.835Z,13.98
2017-11-14T04:32:26.761Z,13.98
2017-11-14T04:33:01.075Z,12.68
2017-11-14T04:33:34.972Z,13.75
2017-11-14T04:34:08.844Z,14.80
2017-11-14T04:34:42.725Z,13.30
2017-11-14T04:35:16.736Z,13.57
2017-11-14T04:35:50.601Z,12.70
2017-11-14T04:36:24.549Z,13.38
2017-11-14T04:36:58.414Z,12.85
2017-11-14T04:37:32.649Z,13.68
2017-11-14T04:38:06.515Z,13.30
2017-11-14T04:38:40.384Z,14.23
2017-11-14T04:39:14.276Z,13.88
2017-11-14T04:39:48.239Z,15.35
2017-11-14T04:40:22.408Z,12.98
2017-11-14T04:40:56.280Z,13.77
2017-11-14T04:41:30.236Z,15.35
2017-11-14T04:42:04.323Z,14.52
2017-11-14T04:42:38.401Z,14.57
2017-11-14T04:43:12.345Z,14.25
2017-11-14T04:43:46.316Z,13.60
2017-11-14T04:44:20.192Z,13.85
2017-11-14T04:44:54.104Z,12.95
2017-11-14T04:45:28.006Z,14.48
2017-11-14T04:46:01.883Z,14.15
2017-11-14T04:46:36.107Z,14.15
2017-11-14T04:47:09.991Z,14.00
2017-11-14T04:47:43.858Z,14.35
2017-11-14T04:48:17.723Z,14.15
2017-11-14T04:48:51.660Z,15.57
2017-11-14T04:49:25.529Z,14.00
2017-11-14T04:49:59.604Z,14.00
2017-11-14T04:50:33.627Z,13.50
2017-11-14T04:51:07.499Z,13.23
2017-11-14T04:51:41.415Z,12.20
2017-11-14T04:52:15.387Z,14.13
2017-11-14T04:52:49.687Z,14.10
2017-11-14T04:53:23.589Z,13.48
2017-11-14T04:53:57.466Z,13.35
2017-11-14T04:54:31.339Z,13.32
2017-11-14T04:55:05.267Z,13.73
2017-11-14T04:55:39.332Z,12.13
2017-11-14T04:56:13.207Z,14.15
2017-11-14T04:56:47.936Z,11.98
2017-11-14T04:57:21.875Z,13.93
2017-11-14T04:57:55.750Z,14.32
2017-11-14T04:58:29.625Z,12.20
2017-11-14T04:59:03.633Z,12.32
2017-11-14T04:59:37.619Z,13.57
2017-11-14T05:00:11.499Z,12.60
2017-11-14T05:00:45.367Z,13.80
2017-11-14T05:01:19.405Z,14.27
2017-11-14T05:01:53.283Z,16.15
2017-11-14T05:02:27.159Z,14.43
2017-11-14T05:03:01.034Z,14.82
2017-11-14T05:03:35.105Z,14.80
2017-11-14T05:04:09.188Z,13.45
2017-11-14T05:04:43.075Z,14.77
2017-11-14T05:05:17.076Z,14.32
2017-11-14T05:05:50.967Z,14.73
2017-11-14T05:06:24.851Z,14.15
2017-11-14T05:06:58.720Z,15.75
2017-11-14T05:07:32.801Z,15.13
2017-11-14T05:08:06.671Z,14.57
2017-11-14T05:08:40.596Z,16.40
2017-11-14T05:09:14.477Z,15.15
2017-11-14T05:09:48.475Z,14.38
2017-11-14T05:10:22.568Z,15.45
2017-11-14T05:10:56.918Z,17.00
2017-11-14T05:11:30.783Z,16.67
2017-11-14T05:12:04.946Z,14.15
2017-11-14T05:12:38.872Z,15.50
2017-11-14T05:13:12.747Z,15.45
2017-11-14T05:13:46.615Z,15.75
2017-11-14T05:14:20.486Z,15.38
2017-11-14T05:14:54.356Z,15.40
2017-11-14T05:15:28.242Z,17.10
2017-11-14T05:16:02.119Z,15.82
2017-11-14T05:16:35.986Z,15.90
2017-11-14T05:17:09.871Z,15.07
2017-11-14T05:17:43.802Z,17.23
2017-11-14T05:18:17.675Z,16.37
2017-11-14T05:18:51.549Z,16.25
2017-11-14T05:19:25.441Z,16.75
2017-11-14T05:19:59.307Z,17.85
2017-11-14T05:20:33.199Z,17.08
2017-11-14T05:21:07.080Z,15.70
2017-11-14T05:21:40.939Z,16.75
2017-11-14T05:22:14.819Z,16.20
2017-11-14T05:22:48.855Z,17.00
2017-11-14T05:23:22.723Z,16.35
2017-11-14T05:23:56.619Z,16.33
2017-11-14T05:24:30.860Z,17.80
2017-11-14T05:25:04.843Z,16.60
2017-11-14T05:25:38.720Z,16.23
2017-11-14T05:26:12.758Z,16.33
2017-11-14T05:26:46.750Z,17.77
2017-11-14T05:27:20.655Z,16.33
2017-11-14T05:27:54.536Z,16.23
2017-11-14T05:28:28.566Z,17.62
2017-11-14T05:29:03.512Z,16.35
2017-11-14T05:29:37.410Z,17.25
2017-11-14T05:30:11.315Z,16.65
2017-11-14T05:30:45.308Z,17.98
2017-11-14T05:31:19.373Z,17.65
2017-11-14T05:31:53.393Z,18.25
2017-11-14T05:32:27.296Z,17.98
2017-11-14T05:33:01.182Z,16.98
2017-11-14T05:33:35.530Z,16.37
2017-11-14T05:34:09.542Z,17.45
2017-11-14T05:34:43.424Z,18.33
2017-11-14T05:35:17.431Z,17.42
2017-11-14T05:35:51.341Z,19.33
2017-11-14T05:36:25.218Z,17.58
2017-11-14T05:36:59.112Z,19.55
2017-11-14T05:37:33.115Z,19.00
2017-11-14T05:38:07.021Z,17.20
2017-11-14T05:38:40.891Z,17.35
2017-11-14T05:39:14.906Z,17.77
2017-11-14T05:39:49.092Z,17.25
2017-11-14T05:40:22.996Z,18.70
2017-11-14T05:40:56.906Z,19.12
2017-11-14T05:41:30.786Z,18.27
2017-11-14T05:42:04.806Z,17.55
2017-11-14T05:42:38.689Z,19.15
2017-11-14T05:43:12.574Z,18.70
2017-11-14T05:43:46.437Z,18.20
2017-11-14T05:44:20.346Z,18.70
2017-11-14T05:44:54.217Z,18.52
2017-11-14T05:45:28.096Z,19.20
2017-11-14T05:46:01.996Z,20.12
2017-11-14T05:46:35.875Z,19.37
2017-11-14T05:47:09.769Z,19.00
2017-11-14T05:47:43.628Z,19.35
2017-11-14T05:48:17.521Z,19.85
2017-11-14T05:48:51.406Z,19.77
2017-11-14T05:49:25.322Z,19.83
2017-11-14T05:49:59.197Z,20.48
2017-11-14T05:50:33.213Z,21.40
2017-11-14T05:51:07.101Z,20.98
2017-11-14T05:51:40.976Z,21.15
2017-11-14T05:52:14.835Z,20.65
2017-11-14T05:52:48.710Z,21.60
2017-11-14T05:53:22.579Z,22.20
2017-11-14T05:53:56.489Z,22.73
2017-11-14T05:54:30.375Z,21.80
2017-11-14T05:55:04.268Z,19.80
2017-11-14T05:55:38.136Z,23.42
2017-11-14T05:56:12.295Z,21.10
2017-11-14T05:56:46.260Z,20.83
2017-11-14T05:57:20.150Z,18.95
2017-11-14T05:57:54.031Z,19.17
2017-11-14T05:58:28.082Z,20.80
2017-11-14T05:59:01.963Z,22.17
2017-11-14T05:59:35.837Z,21.35
2017-11-14T06:00:09.712Z,21.52
2017-11-14T06:00:43.654Z,21.67
2017-11-14T06:01:18.243Z,21.30
2017-11-14T06:01:52.127Z,23.35
2017-11-14T06:02:25.980Z,21.48
2017-11-14T06:02:59.849Z,22.48
2017-11-14T06:03:33.769Z,21.05
2017-11-14T06:04:07.644Z,21.62
2017-11-14T06:04:41.503Z,21.52
2017-11-14T06:05:15.370Z,23.15
2017-11-14T06:05:49.319Z,24.95
2017-11-14T06:06:23.243Z,23.40
2017-11-14T06:06:57.166Z,22.60
2017-11-14T06:07:31.395Z,22.50
2017-11-14T06:08:05.268Z,23.30
2017-11-14T06:08:39.152Z,22.45
2017-11-14T06:09:13.025Z,22.42
2017-11-14T06:09:46.936Z,23.73
2017-11-14T06:10:20.897Z,21.20
2017-11-14T06:10:54.754Z,22.95
2017-11-14T06:11:28.631Z,23.02
2017-11-14T06:12:02.541Z,21.98
2017-11-14T06:12:36.419Z,23.33
2017-11-14T06:13:10.980Z,22.20
2017-11-14T06:13:44.963Z,23.10
2017-11-14T06:14:18.856Z,23.33
2017-11-14T06:14:52.782Z,24.27
2017-11-14T06:15:26.678Z,22.70
2017-11-14T06:16:00.615Z,22.73
2017-11-14T06:16:35.128Z,20.70
2017-11-14T06:17:09.049Z,22.70
2017-11-14T06:17:42.961Z,23.92
2017-11-14T06:18:16.841Z,23.10
2017-11-14T06:18:50.728Z,22.77
2017-11-14T06:19:24.645Z,20.75
2017-11-14T06:19:58.836Z,23.65
2017-11-14T06:20:32.770Z,24.60
2017-11-14T06:21:06.635Z,22.98
2017-11-14T06:21:40.527Z,21.95
2017-11-14T06:22:14.387Z,22.05
2017-11-14T06:22:48.280Z,22.30
2017-11-14T06:23:22.155Z,23.10
2017-11-14T06:23:56.111Z,23.25
2017-11-14T06:24:30.138Z,24.98
2017-11-14T06:25:04.027Z,23.90
2017-11-14T06:25:38.110Z,26.45
2017-11-14T06:26:11.988Z,22.33
2017-11-14T06:26:45.943Z,22.87
2017-11-14T06:27:19.988Z,23.48
2017-11-14T06:27:55.004Z,23.62
2017-11-14T06:28:28.900Z,23.65
2017-11-14T06:29:02.900Z,22.27
2017-11-14T06:29:36.790Z,23.33
2017-11-14T06:30:10.667Z,22.58
2017-11-14T06:30:44.540Z,24.85
2017-11-14T06:31:18.683Z,22.37
2017-11-14T06:31:52.722Z,23.50
2017-11-14T06:32:26.813Z,23.00
2017-11-14T06:33:00.835Z,26.98
2017-11-14T06:33:35.537Z,25.95
2017-11-14T06:34:09.625Z,26.37
2017-11-14T06:34:43.656Z,24.40
2017-11-14T06:35:17.692Z,25.20
2017-11-14T06:35:51.699Z,25.65
2017-11-14T06:36:25.573Z,23.85
2017-11-14T06:36:59.685Z,24.30
2017-11-14T06:37:33.567Z,24.67
2017-11-14T06:38:10.680Z,23.50
2017-11-14T06:38:44.550Z,25.02
2017-11-14T06:39:18.427Z,24.67
2017-11-14T06:39:52.442Z,22.65
2017-11-14T06:40:26.386Z,22.23
2017-11-14T06:41:00.298Z,25.08
2017-11-14T06:41:34.255Z,22.48
2017-11-14T06:42:08.431Z,26.33
2017-11-14T06:42:42.299Z,22.62
2017-11-14T06:43:16.189Z,24.25
2017-11-14T06:43:50.054Z,23.90
2017-11-14T06:44:24.152Z,23.12
2017-11-14T06:44:58.151Z,22.05
2017-11-14T06:45:32.037Z,24.30
2017-11-14T06:46:05.927Z,25.12
2017-11-14T06:46:39.910Z,22.65
2017-11-14T06:47:14.408Z,23.70
2017-11-14T06:47:48.278Z,25.55
2017-11-14T06:48:22.209Z,23.95
2017-11-14T06:48:56.080Z,25.00
2017-11-14T06:49:30.691Z,23.27
2017-11-14T06:50:04.570Z,23.62
2017-11-14T06:50:38.430Z,23.92
2017-11-14T06:51:12.299Z,24.92
2017-11-14T06:51:46.292Z,24.80
2017-11-14T06:52:20.287Z,24.98
2017-11-14T06:52:54.208Z,24.48
2017-11-14T06:53:28.242Z,24.23
2017-11-14T06:54:02.175Z,24.67
2017-11-14T06:54:36.083Z,25.05
2017-11-14T06:55:10.089Z,26.05
2017-11-14T06:55:43.966Z,26.85
2017-11-14T06:56:17.969Z,22.85
2017-11-14T06:56:51.853Z,24.40
2017-11-14T06:57:27.182Z,24.17
2017-11-14T06:58:01.076Z,22.98
2017-11-14T06:58:34.944Z,23.25
2017-11-14T06:59:08.893Z,23.58
2017-11-14T06:59:42.760Z,23.67
2017-11-14T07:00:16.870Z,23.17
2017-11-14T07:00:50.760Z,23.42
2017-11-14T07:01:24.929Z,23.45
2017-11-14T07:01:59.167Z,24.08
2017-11-14T07:02:33.034Z,24.15
2017-11-14T07:03:06.955Z,26.65
2017-11-14T07:03:40.972Z,23.83
2017-11-14T07:04:14.840Z,23.00
2017-11-14T07:04:48.771Z,23.27
2017-11-14T07:05:22.638Z,22.37
2017-11-14T07:05:56.522Z,23.38
2017-11-14T07:06:30.386Z,24.45
2017-11-14T07:07:04.398Z,26.65
2017-11-14T07:07:38.274Z,22.27
2017-11-14T07:08:12.135Z,22.92
2017-11-14T07:08:46.032Z,22.75
2017-11-14T07:09:20.476Z,22.08
2017-11-14T07:09:54.918Z,23.17
2017-11-14T07:10:28.878Z,20.90
2017-11-14T07:11:03.535Z,21.45
2017-11-14T07:11:37.588Z,22.37
2017-11-14T07:12:11.548Z,22.67
2017-11-14T07:12:46.059Z,21.95
2017-11-14T07:13:19.988Z,21.80
2017-11-14T07:13:53.979Z,20.67
2017-11-14T07:14:27.886Z,21.62
2017-11-14T07:15:01.753Z,22.45
2017-11-14T07:15:35.686Z,21.98
2017-11-14T07:16:09.827Z,22.90
2017-11-14T07:16:43.736Z,24.42
2017-11-14T07:17:17.873Z,26.02
2017-11-14T07:17:51.750Z,22.65
2017-11-14T07:18:25.658Z,21.92
2017-11-14T07:18:59.539Z,21.77
2017-11-14T07:19:33.483Z,22.00
2017-11-14T07:20:08.427Z,23.75
2017-11-14T07:20:42.329Z,21.92
2017-11-14T07:21:16.212Z,21.58
2017-11-14T07:21:50.083Z,22.85
2017-11-14T07:22:24.138Z,22.23
2017-11-14T07:22:58.078Z,21.70
2017-11-14T07:23:31.945Z,21.45